sensor_id;sensor_type;location;lat;lon;timestamp;P1;P2;P0
73517;PMS5003;61766;60.318;25.044;2022-09-09T00:01:49;9;9;
73517;PMS5003;61766;60.318;25.044;2022-09-09T00:04:13;10;10;
73517;PMS5003;61766;60.318;25.044;2022-09-09T00:06:42;12;12;
73517;PMS5003;61766;60.318;25.044;2022-09-09T00:09:04;9;9;
73517;PMS5003;61766;60.318;25.044;2022-09-09T00:11:28;9;9;
73517;PMS5003;61766;60.318;25.044;2022-09-09T00:13:54;11;11;
73517;PMS5003;61766;60.318;25.044;2022-09-09T00:16:19;10;10;
73517;PMS5003;61766;60.318;25.044;2022-09-09T00:18:47;8;8;
73517;PMS5003;61766;60.318;25.044;2022-09-09T00:21:11;10;10;
73517;PMS5003;61766;60.318;25.044;2022-09-09T00:23:35;9;9;
73517;PMS5003;61766;60.318;25.044;2022-09-09T00:26:02;8;7;
73517;PMS5003;61766;60.318;25.044;2022-09-09T00:28:26;10;10;
73517;PMS5003;61766;60.318;25.044;2022-09-09T00:30:50;10;9;
73517;PMS5003;61766;60.318;25.044;2022-09-09T00:33:16;8;7;
73517;PMS5003;61766;60.318;25.044;2022-09-09T00:35:42;10;9;
73517;PMS5003;61766;60.318;25.044;2022-09-09T00:38:09;7;7;
73517;PMS5003;61766;60.318;25.044;2022-09-09T00:40:32;6;6;
73517;PMS5003;61766;60.318;25.044;2022-09-09T00:43:06;7;7;
73517;PMS5003;61766;60.318;25.044;2022-09-09T00:45:34;6;6;
73517;PMS5003;61766;60.318;25.044;2022-09-09T00:47:48;6;6;
73517;PMS5003;61766;60.318;25.044;2022-09-09T00:50:15;7;7;
73517;PMS5003;61766;60.318;25.044;2022-09-09T00:52:39;7;7;
73517;PMS5003;61766;60.318;25.044;2022-09-09T00:55:05;9;9;
73517;PMS5003;61766;60.318;25.044;2022-09-09T00:57:28;10;9;
73517;PMS5003;61766;60.318;25.044;2022-09-09T00:59:56;7;7;
73517;PMS5003;61766;60.318;25.044;2022-09-09T01:02:21;7;7;
73517;PMS5003;61766;60.318;25.044;2022-09-09T01:04:43;9;8;
73517;PMS5003;61766;60.318;25.044;2022-09-09T01:07:12;8;8;
73517;PMS5003;61766;60.318;25.044;2022-09-09T01:09:36;10;10;
73517;PMS5003;61766;60.318;25.044;2022-09-09T01:12:01;10;10;
73517;PMS5003;61766;60.318;25.044;2022-09-09T01:14:29;9;9;
73517;PMS5003;61766;60.318;25.044;2022-09-09T01:16:50;10;10;
73517;PMS5003;61766;60.318;25.044;2022-09-09T01:19:17;9;9;
73517;PMS5003;61766;60.318;25.044;2022-09-09T01:21:41;10;10;
73517;PMS5003;61766;60.318;25.044;2022-09-09T01:24:11;10;10;
73517;PMS5003;61766;60.318;25.044;2022-09-09T01:26:30;11;11;
73517;PMS5003;61766;60.318;25.044;2022-09-09T01:28:55;8;8;
73517;PMS5003;61766;60.318;25.044;2022-09-09T01:31:23;8;8;
73517;PMS5003;61766;60.318;25.044;2022-09-09T01:33:46;10;10;
73517;PMS5003;61766;60.318;25.044;2022-09-09T01:36:12;12;10;
73517;PMS5003;61766;60.318;25.044;2022-09-09T01:38:36;7;7;
73517;PMS5003;61766;60.318;25.044;2022-09-09T01:41:01;8;8;
73517;PMS5003;61766;60.318;25.044;2022-09-09T01:43:27;8;8;
73517;PMS5003;61766;60.318;25.044;2022-09-09T01:45:52;7;7;
73517;PMS5003;61766;60.318;25.044;2022-09-09T01:48:17;9;9;
73517;PMS5003;61766;60.318;25.044;2022-09-09T01:50:42;8;8;
73517;PMS5003;61766;60.318;25.044;2022-09-09T01:53:07;9;9;
73517;PMS5003;61766;60.318;25.044;2022-09-09T01:55:33;9;8;
73517;PMS5003;61766;60.318;25.044;2022-09-09T01:58:02;9;8;
73517;PMS5003;61766;60.318;25.044;2022-09-09T02:00:22;10;9;
73517;PMS5003;61766;60.318;25.044;2022-09-09T02:02:50;8;8;
73517;PMS5003;61766;60.318;25.044;2022-09-09T02:05:17;10;10;
73517;PMS5003;61766;60.318;25.044;2022-09-09T02:07:39;7;7;
73517;PMS5003;61766;60.318;25.044;2022-09-09T02:10:05;7;7;
73517;PMS5003;61766;60.318;25.044;2022-09-09T02:12:29;7;6;
73517;PMS5003;61766;60.318;25.044;2022-09-09T02:14:55;7;7;
73517;PMS5003;61766;60.318;25.044;2022-09-09T02:17:20;8;8;
73517;PMS5003;61766;60.318;25.044;2022-09-09T02:19:44;7;7;
73517;PMS5003;61766;60.318;25.044;2022-09-09T02:22:09;6;6;
73517;PMS5003;61766;60.318;25.044;2022-09-09T02:24:34;7;7;
73517;PMS5003;61766;60.318;25.044;2022-09-09T02:27:00;8;8;
73517;PMS5003;61766;60.318;25.044;2022-09-09T02:29:25;7;7;
73517;PMS5003;61766;60.318;25.044;2022-09-09T02:31:50;9;8;
73517;PMS5003;61766;60.318;25.044;2022-09-09T02:34:15;8;8;
73517;PMS5003;61766;60.318;25.044;2022-09-09T02:36:41;5;5;
73517;PMS5003;61766;60.318;25.044;2022-09-09T02:39:05;7;7;
73517;PMS5003;61766;60.318;25.044;2022-09-09T02:41:31;6;6;
73517;PMS5003;61766;60.318;25.044;2022-09-09T02:43:55;10;10;
73517;PMS5003;61766;60.318;25.044;2022-09-09T02:46:24;8;8;
73517;PMS5003;61766;60.318;25.044;2022-09-09T02:48:47;8;8;
73517;PMS5003;61766;60.318;25.044;2022-09-09T02:51:14;8;8;
73517;PMS5003;61766;60.318;25.044;2022-09-09T02:53:38;6;6;
73517;PMS5003;61766;60.318;25.044;2022-09-09T02:56:02;8;6;
73517;PMS5003;61766;60.318;25.044;2022-09-09T02:58:26;8;8;
73517;PMS5003;61766;60.318;25.044;2022-09-09T03:00:51;7;7;
73517;PMS5003;61766;60.318;25.044;2022-09-09T03:03:17;7;7;
73517;PMS5003;61766;60.318;25.044;2022-09-09T03:05:42;7;7;
73517;PMS5003;61766;60.318;25.044;2022-09-09T03:08:07;11;10;
73517;PMS5003;61766;60.318;25.044;2022-09-09T03:10:32;6;6;
73517;PMS5003;61766;60.318;25.044;2022-09-09T03:12:57;8;7;
73517;PMS5003;61766;60.318;25.044;2022-09-09T03:15:22;7;7;
73517;PMS5003;61766;60.318;25.044;2022-09-09T03:17:48;9;8;
73517;PMS5003;61766;60.318;25.044;2022-09-09T03:20:13;8;8;
73517;PMS5003;61766;60.318;25.044;2022-09-09T03:22:38;9;8;
73517;PMS5003;61766;60.318;25.044;2022-09-09T03:25:03;8;8;
73517;PMS5003;61766;60.318;25.044;2022-09-09T03:27:28;7;7;
73517;PMS5003;61766;60.318;25.044;2022-09-09T03:29:53;10;8;
73517;PMS5003;61766;60.318;25.044;2022-09-09T03:32:18;8;8;
73517;PMS5003;61766;60.318;25.044;2022-09-09T03:34:43;8;8;
73517;PMS5003;61766;60.318;25.044;2022-09-09T03:37:09;8;8;
73517;PMS5003;61766;60.318;25.044;2022-09-09T03:39:34;6;6;
73517;PMS5003;61766;60.318;25.044;2022-09-09T03:41:59;8;8;
73517;PMS5003;61766;60.318;25.044;2022-09-09T03:44:24;9;9;
73517;PMS5003;61766;60.318;25.044;2022-09-09T03:46:49;9;9;
73517;PMS5003;61766;60.318;25.044;2022-09-09T03:49:14;7;7;
73517;PMS5003;61766;60.318;25.044;2022-09-09T03:51:40;9;9;
73517;PMS5003;61766;60.318;25.044;2022-09-09T03:54:05;8;8;
73517;PMS5003;61766;60.318;25.044;2022-09-09T03:56:30;10;10;
73517;PMS5003;61766;60.318;25.044;2022-09-09T03:58:55;9;9;
73517;PMS5003;61766;60.318;25.044;2022-09-09T04:01:21;8;8;
73517;PMS5003;61766;60.318;25.044;2022-09-09T04:03:46;8;8;
73517;PMS5003;61766;60.318;25.044;2022-09-09T04:06:12;10;10;
73517;PMS5003;61766;60.318;25.044;2022-09-09T04:08:37;10;9;
73517;PMS5003;61766;60.318;25.044;2022-09-09T04:11:02;12;11;
73517;PMS5003;61766;60.318;25.044;2022-09-09T04:13:28;10;10;
73517;PMS5003;61766;60.318;25.044;2022-09-09T04:15:53;11;10;
73517;PMS5003;61766;60.318;25.044;2022-09-09T04:18:18;11;10;
73517;PMS5003;61766;60.318;25.044;2022-09-09T04:20:45;9;9;
73517;PMS5003;61766;60.318;25.044;2022-09-09T04:23:08;10;10;
73517;PMS5003;61766;60.318;25.044;2022-09-09T04:25:34;12;11;
73517;PMS5003;61766;60.318;25.044;2022-09-09T04:27:59;10;10;
73517;PMS5003;61766;60.318;25.044;2022-09-09T04:30:24;12;11;
73517;PMS5003;61766;60.318;25.044;2022-09-09T04:32:49;11;11;
73517;PMS5003;61766;60.318;25.044;2022-09-09T04:35:14;9;9;
73517;PMS5003;61766;60.318;25.044;2022-09-09T04:37:39;9;9;
73517;PMS5003;61766;60.318;25.044;2022-09-09T04:40:05;10;10;
73517;PMS5003;61766;60.318;25.044;2022-09-09T04:42:31;11;11;
73517;PMS5003;61766;60.318;25.044;2022-09-09T04:44:55;12;10;
73517;PMS5003;61766;60.318;25.044;2022-09-09T04:47:20;10;10;
73517;PMS5003;61766;60.318;25.044;2022-09-09T04:49:46;12;12;
73517;PMS5003;61766;60.318;25.044;2022-09-09T04:52:11;11;11;
73517;PMS5003;61766;60.318;25.044;2022-09-09T04:54:36;10;10;
73517;PMS5003;61766;60.318;25.044;2022-09-09T04:57:02;10;10;
73517;PMS5003;61766;60.318;25.044;2022-09-09T04:59:27;10;10;
73517;PMS5003;61766;60.318;25.044;2022-09-09T05:01:52;14;12;
73517;PMS5003;61766;60.318;25.044;2022-09-09T05:04:18;15;13;
73517;PMS5003;61766;60.318;25.044;2022-09-09T05:06:43;15;14;
73517;PMS5003;61766;60.318;25.044;2022-09-09T05:09:09;13;11;
73517;PMS5003;61766;60.318;25.044;2022-09-09T05:11:34;16;14;
73517;PMS5003;61766;60.318;25.044;2022-09-09T05:13:59;20;18;
73517;PMS5003;61766;60.318;25.044;2022-09-09T05:16:25;15;14;
73517;PMS5003;61766;60.318;25.044;2022-09-09T05:18:50;15;15;
73517;PMS5003;61766;60.318;25.044;2022-09-09T05:21:19;16;14;
73517;PMS5003;61766;60.318;25.044;2022-09-09T05:23:41;16;15;
73517;PMS5003;61766;60.318;25.044;2022-09-09T05:26:09;13;13;
73517;PMS5003;61766;60.318;25.044;2022-09-09T05:28:34;16;14;
73517;PMS5003;61766;60.318;25.044;2022-09-09T05:30:58;15;14;
73517;PMS5003;61766;60.318;25.044;2022-09-09T05:33:22;16;15;
73517;PMS5003;61766;60.318;25.044;2022-09-09T05:35:47;14;14;
73517;PMS5003;61766;60.318;25.044;2022-09-09T05:38:14;14;14;
73517;PMS5003;61766;60.318;25.044;2022-09-09T05:40:37;17;17;
73517;PMS5003;61766;60.318;25.044;2022-09-09T05:43:04;14;13;
73517;PMS5003;61766;60.318;25.044;2022-09-09T05:45:28;14;14;
73517;PMS5003;61766;60.318;25.044;2022-09-09T05:47:53;18;17;
73517;PMS5003;61766;60.318;25.044;2022-09-09T05:50:18;15;14;
73517;PMS5003;61766;60.318;25.044;2022-09-09T05:52:43;16;15;
73517;PMS5003;61766;60.318;25.044;2022-09-09T05:55:09;20;19;
73517;PMS5003;61766;60.318;25.044;2022-09-09T05:57:34;15;13;
73517;PMS5003;61766;60.318;25.044;2022-09-09T06:00:00;13;12;
73517;PMS5003;61766;60.318;25.044;2022-09-09T06:02:26;12;11;
73517;PMS5003;61766;60.318;25.044;2022-09-09T06:04:51;11;10;
73517;PMS5003;61766;60.318;25.044;2022-09-09T06:07:16;10;9;
73517;PMS5003;61766;60.318;25.044;2022-09-09T06:09:41;8;8;
73517;PMS5003;61766;60.318;25.044;2022-09-09T06:12:07;8;8;
73517;PMS5003;61766;60.318;25.044;2022-09-09T06:14:31;7;6;
73517;PMS5003;61766;60.318;25.044;2022-09-09T06:16:56;4;3;
73517;PMS5003;61766;60.318;25.044;2022-09-09T06:19:22;5;5;
73517;PMS5003;61766;60.318;25.044;2022-09-09T06:21:48;4;4;
73517;PMS5003;61766;60.318;25.044;2022-09-09T06:24:14;2;2;
73517;PMS5003;61766;60.318;25.044;2022-09-09T06:26:39;1;1;
73517;PMS5003;61766;60.318;25.044;2022-09-09T06:29:05;2;2;
73517;PMS5003;61766;60.318;25.044;2022-09-09T06:31:32;2;2;
73517;PMS5003;61766;60.318;25.044;2022-09-09T06:33:57;1;1;
73517;PMS5003;61766;60.318;25.044;2022-09-09T06:36:23;1;1;
73517;PMS5003;61766;60.318;25.044;2022-09-09T06:38:49;1;1;
73517;PMS5003;61766;60.318;25.044;2022-09-09T06:41:15;0;0;
73517;PMS5003;61766;60.318;25.044;2022-09-09T06:43:41;1;1;
73517;PMS5003;61766;60.318;25.044;2022-09-09T06:46:07;1;1;
73517;PMS5003;61766;60.318;25.044;2022-09-09T06:48:32;0;0;
73517;PMS5003;61766;60.318;25.044;2022-09-09T06:51:01;2;2;
73517;PMS5003;61766;60.318;25.044;2022-09-09T06:53:23;0;0;
73517;PMS5003;61766;60.318;25.044;2022-09-09T06:55:49;0;0;
73517;PMS5003;61766;60.318;25.044;2022-09-09T06:58:15;1;1;
73517;PMS5003;61766;60.318;25.044;2022-09-09T07:00:41;0;0;
73517;PMS5003;61766;60.318;25.044;2022-09-09T07:03:07;2;2;
73517;PMS5003;61766;60.318;25.044;2022-09-09T07:05:32;0;0;
73517;PMS5003;61766;60.318;25.044;2022-09-09T07:07:58;3;3;
73517;PMS5003;61766;60.318;25.044;2022-09-09T07:10:24;2;2;
73517;PMS5003;61766;60.318;25.044;2022-09-09T07:12:50;0;0;
73517;PMS5003;61766;60.318;25.044;2022-09-09T07:15:16;1;0;
73517;PMS5003;61766;60.318;25.044;2022-09-09T07:17:41;0;0;
73517;PMS5003;61766;60.318;25.044;2022-09-09T07:20:07;1;1;
73517;PMS5003;61766;60.318;25.044;2022-09-09T07:22:33;1;1;
73517;PMS5003;61766;60.318;25.044;2022-09-09T07:24:59;1;1;
73517;PMS5003;61766;60.318;25.044;2022-09-09T07:27:25;0;0;
73517;PMS5003;61766;60.318;25.044;2022-09-09T07:29:50;0;0;
73517;PMS5003;61766;60.318;25.044;2022-09-09T07:32:16;0;0;
73517;PMS5003;61766;60.318;25.044;2022-09-09T07:34:42;1;1;
73517;PMS5003;61766;60.318;25.044;2022-09-09T07:37:08;0;0;
73517;PMS5003;61766;60.318;25.044;2022-09-09T07:39:34;0;0;
73517;PMS5003;61766;60.318;25.044;2022-09-09T07:41:59;0;0;
73517;PMS5003;61766;60.318;25.044;2022-09-09T07:44:25;1;1;
73517;PMS5003;61766;60.318;25.044;2022-09-09T07:46:51;0;0;
73517;PMS5003;61766;60.318;25.044;2022-09-09T07:49:17;0;0;
73517;PMS5003;61766;60.318;25.044;2022-09-09T07:51:43;1;1;
73517;PMS5003;61766;60.318;25.044;2022-09-09T07:54:09;0;0;
73517;PMS5003;61766;60.318;25.044;2022-09-09T07:56:34;1;1;
73517;PMS5003;61766;60.318;25.044;2022-09-09T07:59:00;0;0;
73517;PMS5003;61766;60.318;25.044;2022-09-09T08:01:26;4;2;
73517;PMS5003;61766;60.318;25.044;2022-09-09T08:03:53;0;0;
73517;PMS5003;61766;60.318;25.044;2022-09-09T08:06:18;1;1;
73517;PMS5003;61766;60.318;25.044;2022-09-09T08:08:43;1;1;
73517;PMS5003;61766;60.318;25.044;2022-09-09T08:11:09;1;1;
73517;PMS5003;61766;60.318;25.044;2022-09-09T08:13:35;1;1;
73517;PMS5003;61766;60.318;25.044;2022-09-09T08:16:05;1;1;
73517;PMS5003;61766;60.318;25.044;2022-09-09T08:18:26;1;1;
73517;PMS5003;61766;60.318;25.044;2022-09-09T08:20:52;0;0;
73517;PMS5003;61766;60.318;25.044;2022-09-09T08:23:18;2;2;
73517;PMS5003;61766;60.318;25.044;2022-09-09T08:25:44;1;1;
73517;PMS5003;61766;60.318;25.044;2022-09-09T08:28:09;1;1;
73517;PMS5003;61766;60.318;25.044;2022-09-09T08:30:35;2;2;
73517;PMS5003;61766;60.318;25.044;2022-09-09T08:33:01;1;1;
73517;PMS5003;61766;60.318;25.044;2022-09-09T08:35:27;0;0;
73517;PMS5003;61766;60.318;25.044;2022-09-09T08:37:53;1;1;
73517;PMS5003;61766;60.318;25.044;2022-09-09T08:40:20;2;2;
73517;PMS5003;61766;60.318;25.044;2022-09-09T08:42:44;0;0;
73517;PMS5003;61766;60.318;25.044;2022-09-09T08:45:14;2;2;
73517;PMS5003;61766;60.318;25.044;2022-09-09T08:47:38;0;0;
73517;PMS5003;61766;60.318;25.044;2022-09-09T08:50:04;2;2;
73517;PMS5003;61766;60.318;25.044;2022-09-09T08:52:28;1;0;
73517;PMS5003;61766;60.318;25.044;2022-09-09T08:54:53;1;1;
73517;PMS5003;61766;60.318;25.044;2022-09-09T08:57:19;1;1;
73517;PMS5003;61766;60.318;25.044;2022-09-09T08:59:44;2;2;
73517;PMS5003;61766;60.318;25.044;2022-09-09T09:02:14;2;1;
73517;PMS5003;61766;60.318;25.044;2022-09-09T09:04:39;1;1;
73517;PMS5003;61766;60.318;25.044;2022-09-09T09:07:04;2;2;
73517;PMS5003;61766;60.318;25.044;2022-09-09T09:09:29;1;1;
73517;PMS5003;61766;60.318;25.044;2022-09-09T09:11:54;2;2;
73517;PMS5003;61766;60.318;25.044;2022-09-09T09:14:20;1;1;
73517;PMS5003;61766;60.318;25.044;2022-09-09T09:16:48;1;1;
73517;PMS5003;61766;60.318;25.044;2022-09-09T09:19:11;0;0;
73517;PMS5003;61766;60.318;25.044;2022-09-09T09:21:38;1;1;
73517;PMS5003;61766;60.318;25.044;2022-09-09T09:24:02;1;1;
73517;PMS5003;61766;60.318;25.044;2022-09-09T09:26:29;0;0;
73517;PMS5003;61766;60.318;25.044;2022-09-09T09:28:54;0;0;
73517;PMS5003;61766;60.318;25.044;2022-09-09T09:31:19;0;0;
73517;PMS5003;61766;60.318;25.044;2022-09-09T09:33:46;3;3;
73517;PMS5003;61766;60.318;25.044;2022-09-09T09:36:10;1;1;
73517;PMS5003;61766;60.318;25.044;2022-09-09T09:38:36;0;0;
73517;PMS5003;61766;60.318;25.044;2022-09-09T09:41:02;1;1;
73517;PMS5003;61766;60.318;25.044;2022-09-09T09:43:28;1;1;
73517;PMS5003;61766;60.318;25.044;2022-09-09T09:45:53;1;1;
73517;PMS5003;61766;60.318;25.044;2022-09-09T09:48:19;0;0;
73517;PMS5003;61766;60.318;25.044;2022-09-09T09:50:46;1;1;
73517;PMS5003;61766;60.318;25.044;2022-09-09T09:53:17;0;0;
73517;PMS5003;61766;60.318;25.044;2022-09-09T09:55:44;1;1;
73517;PMS5003;61766;60.318;25.044;2022-09-09T09:58:03;0;0;
73517;PMS5003;61766;60.318;25.044;2022-09-09T10:00:28;0;0;
73517;PMS5003;61766;60.318;25.044;2022-09-09T10:02:53;1;1;
73517;PMS5003;61766;60.318;25.044;2022-09-09T10:05:22;2;2;
73517;PMS5003;61766;60.318;25.044;2022-09-09T10:07:45;1;1;
73517;PMS5003;61766;60.318;25.044;2022-09-09T10:10:12;1;1;
73517;PMS5003;61766;60.318;25.044;2022-09-09T10:12:39;1;1;
73517;PMS5003;61766;60.318;25.044;2022-09-09T10:15:04;1;1;
73517;PMS5003;61766;60.318;25.044;2022-09-09T10:17:29;1;1;
73517;PMS5003;61766;60.318;25.044;2022-09-09T10:19:57;2;2;
73517;PMS5003;61766;60.318;25.044;2022-09-09T10:22:23;1;1;
73517;PMS5003;61766;60.318;25.044;2022-09-09T10:24:49;1;1;
73517;PMS5003;61766;60.318;25.044;2022-09-09T10:27:12;1;1;
73517;PMS5003;61766;60.318;25.044;2022-09-09T10:29:41;2;2;
73517;PMS5003;61766;60.318;25.044;2022-09-09T10:32:06;2;2;
73517;PMS5003;61766;60.318;25.044;2022-09-09T10:34:35;0;0;
73517;PMS5003;61766;60.318;25.044;2022-09-09T10:36:54;1;1;
73517;PMS5003;61766;60.318;25.044;2022-09-09T10:39:25;2;2;
73517;PMS5003;61766;60.318;25.044;2022-09-09T10:41:48;2;2;
73517;PMS5003;61766;60.318;25.044;2022-09-09T10:44:15;2;1;
73517;PMS5003;61766;60.318;25.044;2022-09-09T10:46:39;2;2;
73517;PMS5003;61766;60.318;25.044;2022-09-09T10:49:06;0;0;
73517;PMS5003;61766;60.318;25.044;2022-09-09T10:51:30;2;2;
73517;PMS5003;61766;60.318;25.044;2022-09-09T10:54:01;1;1;
73517;PMS5003;61766;60.318;25.044;2022-09-09T10:56:20;2;2;
73517;PMS5003;61766;60.318;25.044;2022-09-09T10:58:47;1;1;
73517;PMS5003;61766;60.318;25.044;2022-09-09T11:01:14;1;1;
73517;PMS5003;61766;60.318;25.044;2022-09-09T11:03:37;0;0;
73517;PMS5003;61766;60.318;25.044;2022-09-09T11:06:04;2;2;
73517;PMS5003;61766;60.318;25.044;2022-09-09T11:08:29;1;1;
73517;PMS5003;61766;60.318;25.044;2022-09-09T11:10:57;1;1;
73517;PMS5003;61766;60.318;25.044;2022-09-09T11:13:23;2;2;
73517;PMS5003;61766;60.318;25.044;2022-09-09T11:15:46;0;0;
73517;PMS5003;61766;60.318;25.044;2022-09-09T11:18:13;1;1;
73517;PMS5003;61766;60.318;25.044;2022-09-09T11:20:37;1;1;
73517;PMS5003;61766;60.318;25.044;2022-09-09T11:23:04;0;0;
73517;PMS5003;61766;60.318;25.044;2022-09-09T11:25:30;0;0;
73517;PMS5003;61766;60.318;25.044;2022-09-09T11:28:03;1;1;
73517;PMS5003;61766;60.318;25.044;2022-09-09T11:30:21;1;1;
73517;PMS5003;61766;60.318;25.044;2022-09-09T11:35:19;0;0;
73517;PMS5003;61766;60.318;25.044;2022-09-09T11:37:42;2;1;
73517;PMS5003;61766;60.318;25.044;2022-09-09T11:42:26;1;1;
73517;PMS5003;61766;60.318;25.044;2022-09-09T11:44:52;2;2;
73517;PMS5003;61766;60.318;25.044;2022-09-09T11:47:20;1;1;
73517;PMS5003;61766;60.318;25.044;2022-09-09T11:49:43;1;1;
73517;PMS5003;61766;60.318;25.044;2022-09-09T11:52:18;1;0;
73517;PMS5003;61766;60.318;25.044;2022-09-09T11:54:44;2;2;
73517;PMS5003;61766;60.318;25.044;2022-09-09T11:57:01;2;2;
73517;PMS5003;61766;60.318;25.044;2022-09-09T11:59:27;2;2;
73517;PMS5003;61766;60.318;25.044;2022-09-09T12:01:55;2;2;
73517;PMS5003;61766;60.318;25.044;2022-09-09T12:04:25;1;1;
73517;PMS5003;61766;60.318;25.044;2022-09-09T12:06:44;2;2;
73517;PMS5003;61766;60.318;25.044;2022-09-09T12:09:12;0;0;
73517;PMS5003;61766;60.318;25.044;2022-09-09T12:11:35;2;1;
73517;PMS5003;61766;60.318;25.044;2022-09-09T12:14:01;1;1;
73517;PMS5003;61766;60.318;25.044;2022-09-09T12:16:28;1;1;
73517;PMS5003;61766;60.318;25.044;2022-09-09T12:18:52;2;2;
73517;PMS5003;61766;60.318;25.044;2022-09-09T12:21:19;1;1;
73517;PMS5003;61766;60.318;25.044;2022-09-09T12:23:45;1;1;
73517;PMS5003;61766;60.318;25.044;2022-09-09T12:26:16;1;1;
73517;PMS5003;61766;60.318;25.044;2022-09-09T12:28:43;0;0;
73517;PMS5003;61766;60.318;25.044;2022-09-09T12:31:02;1;1;
73517;PMS5003;61766;60.318;25.044;2022-09-09T12:33:32;1;1;
73517;PMS5003;61766;60.318;25.044;2022-09-09T12:35:53;1;1;
73517;PMS5003;61766;60.318;25.044;2022-09-09T12:38:20;2;2;
73517;PMS5003;61766;60.318;25.044;2022-09-09T12:40:53;1;1;
73517;PMS5003;61766;60.318;25.044;2022-09-09T12:45:38;2;2;
73517;PMS5003;61766;60.318;25.044;2022-09-09T12:48:02;1;1;
73517;PMS5003;61766;60.318;25.044;2022-09-09T12:50:27;2;2;
73517;PMS5003;61766;60.318;25.044;2022-09-09T12:52:53;0;0;
73517;PMS5003;61766;60.318;25.044;2022-09-09T12:55:19;1;1;
73517;PMS5003;61766;60.318;25.044;2022-09-09T12:57:44;1;1;
73517;PMS5003;61766;60.318;25.044;2022-09-09T13:00:14;2;2;
73517;PMS5003;61766;60.318;25.044;2022-09-09T13:02:35;3;3;
73517;PMS5003;61766;60.318;25.044;2022-09-09T13:05:08;1;1;
73517;PMS5003;61766;60.318;25.044;2022-09-09T13:07:27;1;1;
73517;PMS5003;61766;60.318;25.044;2022-09-09T13:09:53;2;2;
73517;PMS5003;61766;60.318;25.044;2022-09-09T13:12:19;2;2;
73517;PMS5003;61766;60.318;25.044;2022-09-09T13:14:45;1;1;
73517;PMS5003;61766;60.318;25.044;2022-09-09T13:17:15;1;1;
73517;PMS5003;61766;60.318;25.044;2022-09-09T13:19:36;2;2;
73517;PMS5003;61766;60.318;25.044;2022-09-09T13:24:28;2;2;
73517;PMS5003;61766;60.318;25.044;2022-09-09T13:26:54;2;2;
73517;PMS5003;61766;60.318;25.044;2022-09-09T13:29:19;2;2;
73517;PMS5003;61766;60.318;25.044;2022-09-09T13:31:45;1;1;
73517;PMS5003;61766;60.318;25.044;2022-09-09T13:34:11;3;3;
73517;PMS5003;61766;60.318;25.044;2022-09-09T13:36:36;2;2;
73517;PMS5003;61766;60.318;25.044;2022-09-09T13:39:02;2;2;
73517;PMS5003;61766;60.318;25.044;2022-09-09T13:41:29;2;2;
73517;PMS5003;61766;60.318;25.044;2022-09-09T13:43:53;2;2;
73517;PMS5003;61766;60.318;25.044;2022-09-09T13:46:31;2;2;
73517;PMS5003;61766;60.318;25.044;2022-09-09T13:53:36;1;1;
73517;PMS5003;61766;60.318;25.044;2022-09-09T13:56:02;2;2;
73517;PMS5003;61766;60.318;25.044;2022-09-09T13:58:28;1;1;
73517;PMS5003;61766;60.318;25.044;2022-09-09T14:00:55;0;0;
73517;PMS5003;61766;60.318;25.044;2022-09-09T14:03:19;2;2;
73517;PMS5003;61766;60.318;25.044;2022-09-09T14:05:45;0;0;
73517;PMS5003;61766;60.318;25.044;2022-09-09T14:08:14;2;2;
73517;PMS5003;61766;60.318;25.044;2022-09-09T14:10:37;3;3;
73517;PMS5003;61766;60.318;25.044;2022-09-09T14:13:03;2;2;
73517;PMS5003;61766;60.318;25.044;2022-09-09T14:15:28;2;2;
73517;PMS5003;61766;60.318;25.044;2022-09-09T14:17:54;1;1;
73517;PMS5003;61766;60.318;25.044;2022-09-09T14:20:20;2;2;
73517;PMS5003;61766;60.318;25.044;2022-09-09T14:22:46;1;1;
73517;PMS5003;61766;60.318;25.044;2022-09-09T14:25:11;1;1;
73517;PMS5003;61766;60.318;25.044;2022-09-09T14:27:37;2;2;
73517;PMS5003;61766;60.318;25.044;2022-09-09T14:30:03;2;2;
73517;PMS5003;61766;60.318;25.044;2022-09-09T14:32:29;3;3;
73517;PMS5003;61766;60.318;25.044;2022-09-09T14:34:54;2;2;
73517;PMS5003;61766;60.318;25.044;2022-09-09T14:37:21;2;2;
73517;PMS5003;61766;60.318;25.044;2022-09-09T14:39:46;1;1;
73517;PMS5003;61766;60.318;25.044;2022-09-09T14:42:12;1;1;
73517;PMS5003;61766;60.318;25.044;2022-09-09T14:44:38;2;2;
73517;PMS5003;61766;60.318;25.044;2022-09-09T14:47:03;1;1;
73517;PMS5003;61766;60.318;25.044;2022-09-09T14:49:29;0;0;
73517;PMS5003;61766;60.318;25.044;2022-09-09T14:51:55;3;3;
73517;PMS5003;61766;60.318;25.044;2022-09-09T14:54:21;1;1;
73517;PMS5003;61766;60.318;25.044;2022-09-09T14:56:47;2;2;
73517;PMS5003;61766;60.318;25.044;2022-09-09T14:59:12;1;1;
73517;PMS5003;61766;60.318;25.044;2022-09-09T15:01:38;1;1;
73517;PMS5003;61766;60.318;25.044;2022-09-09T15:04:04;1;1;
73517;PMS5003;61766;60.318;25.044;2022-09-09T15:06:31;0;0;
73517;PMS5003;61766;60.318;25.044;2022-09-09T15:08:56;1;1;
73517;PMS5003;61766;60.318;25.044;2022-09-09T15:11:22;1;1;
73517;PMS5003;61766;60.318;25.044;2022-09-09T15:13:50;1;1;
73517;PMS5003;61766;60.318;25.044;2022-09-09T15:16:14;1;1;
73517;PMS5003;61766;60.318;25.044;2022-09-09T15:18:39;1;1;
73517;PMS5003;61766;60.318;25.044;2022-09-09T15:21:05;2;2;
73517;PMS5003;61766;60.318;25.044;2022-09-09T15:23:31;1;1;
73517;PMS5003;61766;60.318;25.044;2022-09-09T15:25:56;0;0;
73517;PMS5003;61766;60.318;25.044;2022-09-09T15:28:22;1;1;
73517;PMS5003;61766;60.318;25.044;2022-09-09T15:30:48;1;1;
73517;PMS5003;61766;60.318;25.044;2022-09-09T15:33:14;1;1;
73517;PMS5003;61766;60.318;25.044;2022-09-09T15:35:40;1;1;
73517;PMS5003;61766;60.318;25.044;2022-09-09T15:38:05;1;1;
73517;PMS5003;61766;60.318;25.044;2022-09-09T15:40:31;2;2;
73517;PMS5003;61766;60.318;25.044;2022-09-09T15:42:57;0;0;
73517;PMS5003;61766;60.318;25.044;2022-09-09T15:45:23;1;1;
73517;PMS5003;61766;60.318;25.044;2022-09-09T15:47:49;1;1;
73517;PMS5003;61766;60.318;25.044;2022-09-09T15:50:15;2;1;
73517;PMS5003;61766;60.318;25.044;2022-09-09T15:52:40;2;1;
73517;PMS5003;61766;60.318;25.044;2022-09-09T15:55:06;2;2;
73517;PMS5003;61766;60.318;25.044;2022-09-09T15:57:32;1;1;
73517;PMS5003;61766;60.318;25.044;2022-09-09T15:59:58;1;1;
73517;PMS5003;61766;60.318;25.044;2022-09-09T16:02:24;1;1;
73517;PMS5003;61766;60.318;25.044;2022-09-09T16:04:49;2;2;
73517;PMS5003;61766;60.318;25.044;2022-09-09T16:07:15;1;1;
73517;PMS5003;61766;60.318;25.044;2022-09-09T16:09:41;2;2;
73517;PMS5003;61766;60.318;25.044;2022-09-09T16:12:07;0;0;
73517;PMS5003;61766;60.318;25.044;2022-09-09T16:14:33;1;1;
73517;PMS5003;61766;60.318;25.044;2022-09-09T16:16:58;1;1;
73517;PMS5003;61766;60.318;25.044;2022-09-09T16:19:25;1;1;
73517;PMS5003;61766;60.318;25.044;2022-09-09T16:21:50;0;0;
73517;PMS5003;61766;60.318;25.044;2022-09-09T16:24:18;2;2;
73517;PMS5003;61766;60.318;25.044;2022-09-09T16:26:43;1;1;
73517;PMS5003;61766;60.318;25.044;2022-09-09T16:29:08;2;2;
73517;PMS5003;61766;60.318;25.044;2022-09-09T16:31:34;0;0;